Time;durP1;ratioP1;P1;durP2;ratioP2;P2;SDS_P1;SDS_P2;PMS_P1;PMS_P2;Temp;Humidity;BMP_temperature;BMP_pressure;BME280_temperature;BME280_humidity;BME280_pressure;Samples;Min_cycle;Max_cycle;Signal;HPM_P1;HPM_P2
2021/12/20 00:01:56;;;;;;;1.83;0.75;;;;;;;20.67;42.36;96964.19;10530665;28;20033;-53
2021/12/20 00:07:15;;;;;;;1.25;0.80;;;;;;;20.66;42.44;96974.25;10505485;28;20056;-51
2021/12/20 00:12:35;;;;;;;1.27;0.80;;;;;;;20.65;42.54;96993.53;10511911;28;20101;-54
2021/12/20 00:17:54;;;;;;;1.92;0.80;;;;;;;20.63;42.61;97001.97;10515453;28;20075;-54
2021/12/20 00:23:13;;;;;;;1.05;0.60;;;;;;;20.64;42.62;97008.97;10498972;28;20052;-54
2021/12/20 00:28:33;;;;;;;1.50;0.60;;;;;;;20.61;42.54;96989.88;10539437;28;20063;-51
2021/12/20 00:33:52;;;;;;;1.27;0.70;;;;;;;20.60;42.63;97007.22;10514744;28;20090;-54
2021/12/20 00:44:50;;;;;;;2.25;0.60;;;;;;;20.57;42.68;97000.53;10499101;28;20056;-54
2021/12/20 00:50:11;;;;;;;1.00;0.70;;;;;;;20.58;42.65;96995.91;10499515;28;20059;-53
2021/12/20 00:55:30;;;;;;;1.88;0.50;;;;;;;20.54;42.61;97009.28;10556864;28;20051;-53
2021/12/20 01:00:51;;;;;;;1.27;0.63;;;;;;;20.53;42.69;97005.00;10571556;28;20040;-54
2021/12/20 01:06:11;;;;;;;2.03;0.85;;;;;;;20.52;42.72;97019.66;10513432;28;20048;-53
2021/12/20 01:11:30;;;;;;;1.15;0.60;;;;;;;20.51;42.82;97020.78;10525571;28;20515;-54
2021/12/20 01:16:51;;;;;;;1.05;0.73;;;;;;;20.50;42.65;97030.00;10508399;28;20040;-54
2021/12/20 01:22:10;;;;;;;0.88;0.40;;;;;;;20.48;42.65;97033.06;10508466;28;20059;-52
2021/12/20 01:27:29;;;;;;;1.67;0.90;;;;;;;20.47;42.69;97041.50;10523976;28;20515;-54
2021/12/20 01:32:49;;;;;;;1.17;0.60;;;;;;;20.46;42.76;97048.00;10516029;28;20048;-54
2021/12/20 01:38:10;;;;;;;1.90;0.80;;;;;;;20.43;42.71;97041.34;10522751;28;20127;-54
2021/12/20 01:43:30;;;;;;;0.70;0.40;;;;;;;20.42;42.66;97049.78;10509873;28;20106;-53
2021/12/20 01:48:50;;;;;;;0.70;0.63;;;;;;;20.40;42.66;97063.63;10525766;28;20542;-54
2021/12/20 01:54:09;;;;;;;0.68;0.50;;;;;;;20.38;42.79;97052.31;10509639;28;20044;-54
2021/12/20 01:59:28;;;;;;;0.80;0.65;;;;;;;20.38;42.73;97059.66;10478348;28;20517;-54
2021/12/20 02:04:50;;;;;;;1.13;0.70;;;;;;;20.36;42.72;97062.69;10541473;28;20040;-54
2021/12/20 02:10:09;;;;;;;1.17;0.50;;;;;;;20.34;42.78;97064.91;10506588;28;20052;-54
2021/12/20 02:15:29;;;;;;;0.80;0.50;;;;;;;20.33;42.76;97066.03;10510652;28;20052;-54
2021/12/20 02:20:48;;;;;;;0.52;0.47;;;;;;;20.32;42.83;97077.97;10534319;28;20078;-51
2021/12/20 02:26:11;;;;;;;1.08;0.50;;;;;;;20.30;42.73;97075.59;10530606;28;20055;-54
2021/12/20 02:37:26;;;;;;;1.08;0.50;;;;;;;20.29;42.84;97084.03;10504559;28;20036;-54
2021/12/20 02:42:48;;;;;;;1.08;0.60;;;;;;;20.28;42.87;97072.41;10509725;28;20087;-53
2021/12/20 02:48:07;;;;;;;1.00;0.40;;;;;;;20.26;42.73;97084.69;10532389;28;20048;-54
2021/12/20 02:53:27;;;;;;;0.70;0.45;;;;;;;20.25;42.77;97073.06;10519398;28;20048;-54
2021/12/20 02:58:46;;;;;;;0.45;0.40;;;;;;;20.22;42.74;97073.69;10530276;28;20040;-54
2021/12/20 03:04:07;;;;;;;0.55;0.50;;;;;;;20.20;42.76;97092.16;10545315;28;20062;-54
2021/12/20 03:09:32;;;;;;;0.85;0.50;;;;;;;20.17;42.73;97090.13;10520874;28;20052;-53
2021/12/20 03:14:56;;;;;;;0.60;0.40;;;;;;;20.15;42.69;97095.06;10515103;28;20426;-54
2021/12/20 03:20:15;;;;;;;0.60;0.45;;;;;;;20.15;42.66;97111.28;10530825;28;20094;-52
2021/12/20 03:25:35;;;;;;;0.60;0.40;;;;;;;20.12;42.73;97123.50;10528872;28;20067;-54
2021/12/20 03:30:54;;;;;;;0.40;0.40;;;;;;;20.10;42.70;97116.84;10531210;28;20098;-54
2021/12/20 03:36:14;;;;;;;0.45;0.45;;;;;;;20.09;42.63;97118.75;10529046;28;20116;-54
2021/12/20 03:41:34;;;;;;;0.80;0.50;;;;;;;20.08;42.69;97127.19;10521618;28;20051;-54
2021/12/20 03:46:54;;;;;;;0.65;0.45;;;;;;;20.06;42.68;97126.72;10501146;28;20036;-54
2021/12/20 03:52:13;;;;;;;0.45;0.38;;;;;;;20.05;42.58;97127.81;10528497;28;20074;-54
2021/12/20 03:57:33;;;;;;;0.40;0.40;;;;;;;20.03;42.66;97125.44;10495791;28;20061;-54
2021/12/20 04:02:53;;;;;;;0.88;0.50;;;;;;;20.03;42.84;97143.56;10502706;28;20060;-54
2021/12/20 04:08:12;;;;;;;0.38;0.38;;;;;;;20.01;42.71;97138.47;10490163;28;20492;-54
2021/12/20 04:13:32;;;;;;;0.40;0.40;;;;;;;20.00;42.86;97139.59;10511950;28;20079;-53
2021/12/20 04:18:52;;;;;;;0.43;0.40;;;;;;;19.99;42.75;97134.50;10519223;28;20157;-54
2021/12/20 04:24:11;;;;;;;4.47;0.40;;;;;;;19.97;42.72;97145.63;10527928;28;20045;-53
2021/12/20 04:29:30;;;;;;;0.40;0.40;;;;;;;19.97;42.75;97144.84;10529979;28;20048;-53
2021/12/20 04:34:50;;;;;;;0.65;0.40;;;;;;;19.94;42.58;97146.28;10513058;28;20056;-54
2021/12/20 04:40:16;;;;;;;1.00;0.57;;;;;;;19.92;42.60;97157.41;10492730;28;20097;-54
2021/12/20 04:45:35;;;;;;;0.40;0.40;;;;;;;19.92;42.53;97162.03;10502058;28;20051;-55
2021/12/20 04:50:55;;;;;;;0.75;0.40;;;;;;;19.90;42.48;97169.66;10510374;28;20509;-55
2021/12/20 04:56:14;;;;;;;0.40;0.40;;;;;;;19.89;42.76;97185.06;10531250;28;20071;-54
2021/12/20 05:01:34;;;;;;;0.80;0.40;;;;;;;19.86;42.65;97184.94;10505895;28;20110;-53
2021/12/20 05:06:53;;;;;;;0.90;0.50;;;;;;;19.85;42.54;97176.00;10531444;28;20052;-54
2021/12/20 05:12:14;;;;;;;0.85;0.60;;;;;;;19.84;42.76;97187.94;10513638;28;20051;-54
2021/12/20 05:17:35;;;;;;;0.73;0.40;;;;;;;19.81;43.10;97183.16;10508455;28;20424;-54
2021/12/20 05:22:56;;;;;;;0.68;0.40;;;;;;;19.81;43.04;97196.69;10539358;28;20506;-54
2021/12/20 05:28:16;;;;;;;0.75;0.40;;;;;;;19.82;43.09;97194.78;10509507;28;20127;-54
2021/12/20 05:33:35;;;;;;;0.90;0.45;;;;;;;19.82;43.28;97194.78;10515175;28;20057;-54
2021/12/20 05:38:54;;;;;;;0.30;0.30;;;;;;;19.84;43.36;97193.34;10509759;28;20056;-54
2021/12/20 05:44:14;;;;;;;0.73;0.40;;;;;;;19.86;43.31;97204.66;10497358;28;20056;-53
2021/12/20 05:49:34;;;;;;;2.40;0.50;;;;;;;19.86;43.32;97209.25;10510590;28;20041;-52
2021/12/20 05:54:53;;;;;;;2.67;0.40;;;;;;;19.89;43.85;97216.72;10516492;28;20135;-51
2021/12/20 06:00:16;;;;;;;0.60;0.32;;;;;;;19.91;43.76;97209.88;10510568;28;20071;-53
2021/12/20 06:05:42;;;;;;;2.03;0.40;;;;;;;19.93;43.89;97209.56;10494986;28;20060;-53
2021/12/20 06:11:02;;;;;;;1.27;0.50;;;;;;;19.96;43.86;97230.59;10494231;28;20442;-52
2021/12/20 06:16:21;;;;;;;1.60;0.40;;;;;;;19.99;43.87;97229.16;10519734;28;20079;-54
2021/12/20 06:21:40;;;;;;;2.08;0.50;;;;;;;20.01;43.66;97221.50;10531009;28;20040;-54
2021/12/20 06:27:00;;;;;;;7.53;1.50;;;;;;;20.04;43.68;97237.91;10531779;28;20539;-54
2021/12/20 06:32:19;;;;;;;6.75;2.05;;;;;;;20.09;43.86;97253.19;10504557;28;20112;-53
2021/12/20 06:37:43;;;;;;;8.98;2.25;;;;;;;20.11;43.60;97245.53;10527492;28;20056;-54
2021/12/20 06:43:03;;;;;;;9.20;2.22;;;;;;;20.14;43.83;97244.91;10509645;28;20051;-54
2021/12/20 06:48:23;;;;;;;9.13;2.85;;;;;;;20.18;43.55;97245.88;10504219;28;20049;-54
2021/12/20 06:53:43;;;;;;;8.15;2.28;;;;;;;20.21;43.52;97257.97;10488381;28;20053;-54
2021/12/20 06:59:02;;;;;;;9.60;2.65;;;;;;;20.24;43.44;97263.53;10527451;28;20044;-54
2021/12/20 07:04:22;;;;;;;13.35;2.90;;;;;;;20.25;43.46;97262.44;10544699;28;20047;-54
2021/12/20 07:09:41;;;;;;;8.70;2.63;;;;;;;20.26;43.47;97269.44;10523359;28;20048;-53
2021/12/20 07:15:01;;;;;;;9.13;2.80;;;;;;;20.27;43.45;97279.16;10505788;28;20043;-53
2021/12/20 07:20:20;;;;;;;10.20;2.65;;;;;;;20.27;43.35;97271.03;10504713;28;20044;-54
2021/12/20 07:25:40;;;;;;;9.48;2.65;;;;;;;20.28;43.28;97275.31;10514144;28;20107;-54
2021/12/20 07:31:00;;;;;;;6.72;2.53;;;;;;;20.30;43.23;97289.31;10516477;28;20063;-54
2021/12/20 07:36:22;;;;;;;6.13;1.95;;;;;;;20.30;42.42;97283.91;10503305;28;20526;-54
2021/12/20 07:41:41;;;;;;;5.53;2.30;;;;;;;20.30;42.38;97285.84;10502081;28;20036;-54
2021/12/20 07:47:02;;;;;;;6.68;2.33;;;;;;;20.31;42.28;97295.56;10502803;28;20036;-54
2021/12/20 07:52:21;;;;;;;5.60;2.33;;;;;;;20.30;42.29;97286.63;10488978;28;20057;-54
2021/12/20 07:57:41;;;;;;;6.70;2.10;;;;;;;20.31;42.25;97287.44;10489113;28;20422;-54
2021/12/20 08:03:00;;;;;;;5.97;2.10;;;;;;;20.30;42.24;97300.16;10489393;28;20055;-54
2021/12/20 08:08:20;;;;;;;5.30;1.85;;;;;;;20.31;42.13;97298.25;10488438;28;20056;-55
2021/12/20 08:13:44;;;;;;;7.97;2.10;;;;;;;20.30;42.20;97294.75;10488555;28;20060;-54
2021/12/20 08:19:04;;;;;;;5.35;2.10;;;;;;;20.30;42.23;97296.66;10489109;28;20110;-54
2021/12/20 08:24:23;;;;;;;6.28;2.00;;;;;;;20.28;42.15;97302.38;10488730;28;20053;-54
2021/12/20 08:29:43;;;;;;;6.03;2.22;;;;;;;20.29;42.02;97306.69;10488986;28;20390;-54
2021/12/20 08:35:05;;;;;;;4.50;1.88;;;;;;;20.30;42.19;97312.88;10488380;28;20086;-53
2021/12/20 08:40:25;;;;;;;4.88;2.00;;;;;;;20.29;42.15;97319.44;10495505;28;20395;-54
2021/12/20 08:45:45;;;;;;;5.03;2.10;;;;;;;20.28;42.17;97324.03;10495920;28;20103;-54
2021/12/20 08:51:05;;;;;;;5.97;1.92;;;;;;;20.29;42.17;97322.13;10496026;28;20543;-54
2021/12/20 08:56:24;;;;;;;3.28;1.70;;;;;;;20.27;42.06;97341.38;10495552;28;20052;-54
2021/12/20 09:01:44;;;;;;;5.68;2.15;;;;;;;20.26;42.18;97342.47;10534686;28;20044;-55
2021/12/20 09:07:05;;;;;;;4.15;1.80;;;;;;;20.25;42.20;97338.19;10538209;28;20048;-54
2021/12/20 09:12:24;;;;;;;3.97;1.80;;;;;;;20.26;42.00;97342.47;10537637;28;20484;-54
2021/12/20 09:17:51;;;;;;;4.50;1.50;;;;;;;20.24;42.07;97352.81;10537734;28;20063;-54
2021/12/20 09:23:12;;;;;;;5.03;1.70;;;;;;;20.23;42.11;97348.53;10536889;28;20109;-54
2021/12/20 09:28:32;;;;;;;4.20;1.85;;;;;;;20.22;42.17;97338.81;10536050;28;20068;-54
2021/12/20 09:33:51;;;;;;;4.95;1.70;;;;;;;20.21;42.16;97342.66;10536518;28;20051;-54
2021/12/20 09:39:11;;;;;;;3.65;1.52;;;;;;;20.21;42.18;97345.34;10535362;28;20044;-54
2021/12/20 09:44:32;;;;;;;2.72;1.60;;;;;;;20.21;42.11;97348.06;10549475;28;20036;-54
2021/12/20 09:49:52;;;;;;;2.75;1.50;;;;;;;20.20;42.11;97334.84;10535081;28;20040;-52
2021/12/20 09:55:15;;;;;;;3.92;1.77;;;;;;;20.20;42.23;97346.44;10548934;28;20048;-54
2021/12/20 10:00:34;;;;;;;3.25;1.30;;;;;;;20.19;42.08;97346.75;10534450;28;20055;-54
2021/12/20 10:05:55;;;;;;;3.75;1.70;;;;;;;20.19;42.04;97344.06;10535048;28;20498;-54
2021/12/20 10:11:25;;;;;;;1.83;1.20;;;;;;;20.18;42.13;97353.28;10534389;28;20400;-54
2021/12/20 10:16:45;;;;;;;2.58;1.20;;;;;;;20.18;42.19;97339.75;10548004;28;20074;-54
2021/12/20 10:22:21;;;;;;;2.53;1.30;;;;;;;20.15;42.06;97339.28;10548128;28;20467;-54
2021/12/20 10:27:40;;;;;;;2.85;1.33;;;;;;;20.15;42.15;97341.19;10538391;28;20048;-50
2021/12/20 10:33:02;;;;;;;2.25;1.10;;;;;;;20.14;42.14;97343.09;10533207;28;20060;-55
2021/12/20 10:38:38;;;;;;;1.98;1.30;;;;;;;20.12;42.13;97336.41;10547392;28;20124;-54
2021/12/20 10:44:01;;;;;;;2.58;1.50;;;;;;;20.11;42.11;97332.09;10533687;28;20056;-51
2021/12/20 10:49:28;;;;;;;2.25;1.08;;;;;;;20.10;42.18;97331.31;10532855;28;20093;-54
2021/12/20 10:54:47;;;;;;;2.10;1.10;;;;;;;20.09;42.17;97328.91;10533623;28;20048;-54
2021/12/20 11:00:19;;;;;;;2.50;1.30;;;;;;;20.09;41.97;97328.91;10546683;28;20055;-54
2021/12/20 11:06:10;;;;;;;2.22;1.17;;;;;;;20.08;42.12;97324.63;10532751;28;20120;-54
2021/12/20 11:11:26;;;;;;;1.80;1.05;;;;;;;20.07;42.15;97323.03;10532503;28;20488;-54
2021/12/20 11:16:49;;;;;;;2.40;1.30;;;;;;;20.05;42.22;97325.25;10532194;28;20047;-54
2021/12/20 11:22:11;;;;;;;1.95;1.08;;;;;;;20.04;42.11;97319.03;10545425;28;20040;-55
2021/12/20 11:27:37;;;;;;;1.55;1.08;;;;;;;20.02;42.14;97323.97;10531393;28;20090;-54
2021/12/20 11:32:57;;;;;;;2.38;1.30;;;;;;;20.02;42.15;97339.41;10532033;28;20058;-54
2021/12/20 11:38:16;;;;;;;2.72;1.20;;;;;;;20.02;42.16;97328.59;10531554;28;20458;-54
2021/12/20 11:43:36;;;;;;;1.42;1.10;;;;;;;20.00;42.05;97330.81;10531375;28;20078;-54
2021/12/20 11:48:58;;;;;;;1.77;1.05;;;;;;;19.98;42.05;97330.34;10515929;28;20047;-54
2021/12/20 11:54:44;;;;;;;1.20;0.85;;;;;;;19.95;42.05;97329.84;10544974;28;20043;-54
2021/12/20 12:00:10;;;;;;;1.27;0.98;;;;;;;19.94;42.11;97333.66;10531273;28;20047;-54
2021/12/20 12:05:50;;;;;;;1.45;0.82;;;;;;;19.92;42.09;97325.06;10515906;28;20056;-52
2021/12/20 12:11:09;;;;;;;1.70;1.08;;;;;;;19.92;41.93;97326.97;10531536;28;20567;-54
2021/12/20 12:17:00;;;;;;;1.52;0.93;;;;;;;19.88;41.73;97340.31;10541463;28;20055;-53
2021/12/20 12:22:26;;;;;;;1.70;1.00;;;;;;;19.87;41.80;97327.91;10515559;28;20097;-54
2021/12/20 12:27:56;;;;;;;1.75;1.00;;;;;;;19.84;41.45;97339.34;10515140;28;20067;-53
2021/12/20 12:33:16;;;;;;;1.55;0.80;;;;;;;19.85;41.65;97345.53;10515933;28;20440;-54
2021/12/20 12:38:45;;;;;;;1.73;0.93;;;;;;;19.83;41.74;97342.38;10520524;28;20052;-53
2021/12/20 12:44:21;;;;;;;1.27;0.98;;;;;;;19.81;41.62;97353.47;10528120;28;20075;-54
2021/12/20 12:49:53;;;;;;;1.92;1.13;;;;;;;19.79;41.67;97352.22;10515089;28;20048;-53
2021/12/20 12:55:24;;;;;;;1.90;0.95;;;;;;;19.78;41.73;97346.00;10508999;28;20435;-54
2021/12/20 13:00:55;;;;;;;1.65;0.82;;;;;;;19.76;41.66;97359.03;10521479;28;20048;-54
2021/12/20 13:06:19;;;;;;;1.50;0.85;;;;;;;19.76;41.68;97353.63;10533952;28;20052;-54
2021/12/20 13:11:39;;;;;;;0.95;0.75;;;;;;;19.73;41.87;97370.47;10532201;28;20060;-54
2021/12/20 13:17:00;;;;;;;2.35;0.80;;;;;;;19.72;41.91;97372.38;10509541;28;20044;-54
2021/12/20 13:22:20;;;;;;;1.42;0.73;;;;;;;19.69;41.74;97367.56;10504938;28;20487;-54
2021/12/20 13:27:39;;;;;;;1.95;1.10;;;;;;;19.68;41.86;97373.25;10520388;28;20055;-53
2021/12/20 13:32:59;;;;;;;1.42;0.80;;;;;;;19.66;41.75;97378.19;10517784;28;20083;-54
2021/12/20 13:38:39;;;;;;;1.20;0.70;;;;;;;19.65;41.87;97374.69;10515639;28;20064;-54
2021/12/20 13:44:04;;;;;;;1.45;0.85;;;;;;;19.64;41.84;97383.94;10516204;28;20660;-54
2021/12/20 13:49:27;;;;;;;2.67;0.80;;;;;;;19.63;41.92;97376.13;10530935;28;20556;-53
2021/12/20 13:54:46;;;;;;;0.80;0.80;;;;;;;19.62;41.89;97377.22;10504096;28;20530;-53
2021/12/20 14:00:09;;;;;;;1.48;0.98;;;;;;;19.59;41.80;97375.16;10534149;28;20717;-54
2021/12/20 14:05:37;;;;;;;1.23;0.80;;;;;;;19.58;42.00;97389.75;10519333;28;20032;-54
2021/12/20 14:10:56;;;;;;;1.73;0.90;;;;;;;19.57;41.99;97380.84;10543341;28;20763;-54
2021/12/20 14:16:16;;;;;;;1.50;0.82;;;;;;;19.56;41.94;97382.78;10533672;28;20491;-54
2021/12/20 14:21:35;;;;;;;1.02;0.80;;;;;;;19.55;41.95;97381.16;10533978;28;20097;-54
2021/12/20 14:27:03;;;;;;;0.90;0.60;;;;;;;19.54;41.76;97393.09;10533729;28;20052;-54
2021/12/20 14:32:39;;;;;;;1.83;0.60;;;;;;;19.56;41.76;97392.75;10533401;28;20047;-54
2021/12/20 14:38:01;;;;;;;0.90;0.60;;;;;;;19.54;41.01;97405.78;10530787;28;20056;-54
2021/12/20 14:43:22;;;;;;;1.95;0.90;;;;;;;19.53;41.60;97402.28;10533237;28;20047;-54
2021/12/20 14:48:48;;;;;;;1.83;0.80;;;;;;;19.54;41.27;97409.31;10532829;28;20056;-54
2021/12/20 14:54:20;;;;;;;1.23;0.80;;;;;;;19.56;41.28;97412.50;10518855;28;20450;-55
2021/12/20 14:59:40;;;;;;;2.22;0.88;;;;;;;19.61;41.35;97416.19;10523213;28;20106;-54
2021/12/20 15:05:01;;;;;;;0.75;0.60;;;;;;;19.62;41.19;97417.75;10545418;28;20113;-54
2021/12/20 15:10:21;;;;;;;2.22;0.80;;;;;;;19.65;41.27;97422.56;10498752;28;20048;-54
2021/12/20 15:15:41;;;;;;;0.90;0.80;;;;;;;19.68;41.32;97435.44;10527875;28;20063;-54
2021/12/20 15:21:00;;;;;;;0.90;0.85;;;;;;;19.69;41.24;97437.84;10563690;28;20056;-54
2021/12/20 15:26:20;;;;;;;0.80;0.70;;;;;;;19.72;41.27;97441.88;10505773;28;20091;-54
2021/12/20 15:31:41;;;;;;;0.82;0.57;;;;;;;19.74;41.31;97447.78;10507618;28;20581;-54
2021/12/20 15:37:01;;;;;;;0.63;0.60;;;;;;;19.77;41.13;97443.63;10514582;28;20044;-54
2021/12/20 15:42:30;;;;;;;1.33;0.77;;;;;;;19.76;41.24;97448.25;10550864;28;20676;-54
2021/12/20 15:47:49;;;;;;;1.73;0.90;;;;;;;19.78;41.23;97459.56;10489543;28;20546;-54
2021/12/20 15:53:13;;;;;;;0.70;0.70;;;;;;;19.81;41.19;97458.94;10515810;28;20720;-54
2021/12/20 15:58:33;;;;;;;0.90;0.70;;;;;;;19.82;41.27;97468.66;10542838;28;20154;-54
2021/12/20 16:03:53;;;;;;;0.98;0.63;;;;;;;19.84;41.15;97469.13;10506402;28;20056;-54
2021/12/20 16:09:13;;;;;;;0.98;0.75;;;;;;;19.86;41.12;97471.53;10521605;28;20045;-54
2021/12/20 16:14:32;;;;;;;1.25;0.82;;;;;;;19.87;41.17;97473.91;10510192;28;20131;-54
2021/12/20 16:19:52;;;;;;;1.35;0.90;;;;;;;19.90;41.06;97478.72;10542393;28;20037;-55
2021/12/20 16:25:14;;;;;;;1.10;0.70;;;;;;;19.93;41.10;97479.97;10502020;28;20109;-54
2021/12/20 16:30:34;;;;;;;1.52;0.60;;;;;;;19.97;41.15;97480.16;10520803;28;20048;-54
2021/12/20 16:35:54;;;;;;;0.90;0.63;;;;;;;20.01;41.20;97475.72;10526353;28;20063;-53
2021/12/20 16:41:13;;;;;;;11.65;4.88;;;;;;;20.04;41.97;97475.91;10509293;28;20052;-53
2021/12/20 16:46:34;;;;;;;7.88;3.00;;;;;;;20.08;42.95;97470.69;10488486;28;20194;-52
2021/12/20 16:51:53;;;;;;;7.40;2.42;;;;;;;20.12;43.10;97469.75;10551327;28;20835;-53
2021/12/20 16:57:14;;;;;;;9.00;2.33;;;;;;;20.16;43.05;97475.34;10504912;28;20403;-52
2021/12/20 17:02:45;;;;;;;5.80;2.10;;;;;;;20.23;43.17;97474.88;10525380;28;20046;-51
2021/12/20 17:08:05;;;;;;;6.30;2.22;;;;;;;20.27;43.54;97475.88;10502507;28;20066;-52
2021/12/20 17:13:24;;;;;;;6.15;2.30;;;;;;;20.31;44.52;97477.63;10504413;28;20094;-53
2021/12/20 17:18:44;;;;;;;6.80;1.95;;;;;;;20.38;45.08;97484.50;10500847;28;20040;-54
2021/12/20 17:24:05;;;;;;;6.38;1.90;;;;;;;20.44;45.35;97492.16;10509283;28;20047;-52
2021/12/20 17:29:25;;;;;;;7.15;1.60;;;;;;;20.51;45.76;97495.22;10534907;28;20119;-55
2021/12/20 17:34:44;;;;;;;6.55;2.00;;;;;;;20.57;46.01;97495.06;10531569;28;20389;-55
2021/12/20 17:40:04;;;;;;;6.72;1.70;;;;;;;20.60;46.19;97503.41;10511952;28;20044;-56
2021/12/20 17:45:24;;;;;;;5.20;1.83;;;;;;;20.64;46.65;97501.66;10503610;28;20426;-56
2021/12/20 17:50:44;;;;;;;2.92;1.55;;;;;;;20.67;46.74;97511.84;10492039;28;20040;-55
2021/12/20 17:56:04;;;;;;;5.93;1.88;;;;;;;20.70;46.59;97511.22;10497796;28;20053;-55
2021/12/20 18:01:24;;;;;;;4.10;1.58;;;;;;;20.71;46.39;97515.53;10493992;28;20525;-55
2021/12/20 18:06:44;;;;;;;5.07;2.00;;;;;;;20.73;46.19;97518.72;10495466;28;20110;-56
2021/12/20 18:12:04;;;;;;;8.73;1.77;;;;;;;20.76;45.92;97520.00;10496677;28;20040;-52
2021/12/20 18:17:24;;;;;;;4.70;1.45;;;;;;;20.77;45.07;97526.22;10496426;28;20457;-55
2021/12/20 18:22:44;;;;;;;4.57;1.38;;;;;;;20.77;44.17;97524.31;10479586;28;20053;-55
2021/12/20 18:28:05;;;;;;;3.38;1.20;;;;;;;20.77;44.07;97521.59;10497435;28;20060;-55
2021/12/20 18:33:24;;;;;;;3.97;1.20;;;;;;;20.78;44.07;97520.50;10497302;28;20049;-56
2021/12/20 18:38:44;;;;;;;4.60;1.25;;;;;;;20.77;43.90;97527.00;10508220;28;20086;-54
2021/12/20 18:44:07;;;;;;;2.53;1.17;;;;;;;20.78;43.58;97533.22;10520083;28;20048;-54
2021/12/20 18:49:29;;;;;;;4.90;1.50;;;;;;;20.77;43.80;97532.41;10515310;28;20068;-54
2021/12/20 18:54:49;;;;;;;2.08;1.10;;;;;;;20.80;43.71;97536.44;10534940;28;20032;-54
2021/12/20 19:00:09;;;;;;;3.03;1.00;;;;;;;20.78;43.89;97538.63;10521421;28;20066;-54
2021/12/20 19:05:30;;;;;;;2.55;0.98;;;;;;;20.78;44.19;97544.88;10522992;28;20059;-55
2021/12/20 19:11:01;;;;;;;4.55;1.70;;;;;;;20.77;42.22;97537.84;10533047;28;20052;-56
2021/12/20 19:16:21;;;;;;;4.45;1.33;;;;;;;20.77;43.03;97537.03;10517913;28;20080;-53
2021/12/20 19:21:40;;;;;;;2.97;1.48;;;;;;;20.78;43.20;97544.03;10518785;28;20048;-54
2021/12/20 19:27:01;;;;;;;3.53;1.15;;;;;;;20.77;43.52;97545.97;10498731;28;20052;-54
2021/12/20 19:32:22;;;;;;;4.57;1.73;;;;;;;20.76;43.76;97547.09;10516695;28;20073;-54
2021/12/20 19:37:42;;;;;;;6.05;1.60;;;;;;;20.78;44.17;97554.88;10537012;28;20044;-55
2021/12/20 19:43:01;;;;;;;3.13;1.30;;;;;;;20.78;44.53;97557.59;10507049;28;20128;-54
2021/12/20 19:48:23;;;;;;;5.45;1.67;;;;;;;20.78;43.42;97550.28;10505540;28;20032;-54
2021/12/20 19:53:42;;;;;;;2.95;1.58;;;;;;;20.79;43.71;97545.66;10526395;28;20040;-54
2021/12/20 19:59:04;;;;;;;5.22;1.40;;;;;;;20.78;44.12;97544.03;10512793;28;20052;-53
2021/12/20 20:04:28;;;;;;;3.78;1.50;;;;;;;20.77;44.71;97553.28;10528368;28;20048;-54
2021/12/20 20:09:49;;;;;;;5.82;1.80;;;;;;;20.74;44.83;97552.81;10519509;28;20115;-54
2021/12/20 20:15:09;;;;;;;4.28;1.50;;;;;;;20.74;44.97;97555.53;10540458;28;20775;-54
2021/12/20 20:20:29;;;;;;;4.65;1.50;;;;;;;20.73;44.99;97553.91;10520847;28;20479;-53
2021/12/20 20:25:49;;;;;;;4.38;1.55;;;;;;;20.72;45.30;97551.53;10532191;28;20044;-53
2021/12/20 20:31:10;;;;;;;4.97;1.60;;;;;;;20.72;45.58;97559.66;10543582;28;20072;-53
2021/12/20 20:36:31;;;;;;;3.83;1.48;;;;;;;20.72;45.83;97560.44;10523967;28;20051;-54
2021/12/20 20:41:51;;;;;;;6.82;1.63;;;;;;;20.70;46.04;97570.00;10516466;28;20090;-53
2021/12/20 20:47:10;;;;;;;3.33;1.38;;;;;;;20.70;45.66;97565.38;10503684;28;20049;-55
2021/12/20 20:52:30;;;;;;;5.20;1.85;;;;;;;20.70;45.16;97575.41;10508580;28;20078;-54
2021/12/20 20:57:50;;;;;;;4.13;1.45;;;;;;;20.69;44.89;97569.19;10515302;28;20643;-53
2021/12/20 21:03:10;;;;;;;2.97;1.50;;;;;;;20.69;44.69;97580.00;10526875;28;20086;-54
2021/12/20 21:08:29;;;;;;;3.05;1.50;;;;;;;20.68;44.53;97578.44;10545986;28;20109;-53
2021/12/20 21:13:48;;;;;;;3.20;1.48;;;;;;;20.69;44.41;97585.44;10511246;28;20404;-53
2021/12/20 21:19:09;;;;;;;2.83;1.42;;;;;;;20.68;44.21;97573.03;10519060;28;20044;-53
2021/12/20 21:24:29;;;;;;;2.47;1.25;;;;;;;20.67;44.00;97574.13;10496108;28;20071;-53
2021/12/20 21:29:52;;;;;;;2.55;1.52;;;;;;;20.68;43.87;97566.78;10503387;28;20126;-51
2021/12/20 21:35:11;;;;;;;2.88;1.50;;;;;;;20.66;43.72;97571.72;10509213;28;20052;-52
2021/12/20 21:40:31;;;;;;;3.70;1.73;;;;;;;20.65;43.72;97565.50;10498183;28;20052;-51
2021/12/20 21:45:52;;;;;;;3.78;1.52;;;;;;;20.65;43.41;97565.50;10511366;28;20040;-51
2021/12/20 21:51:11;;;;;;;2.25;1.33;;;;;;;20.63;43.33;97570.44;10518486;28;20070;-54
2021/12/20 21:56:31;;;;;;;2.47;1.45;;;;;;;20.62;43.35;97576.97;10496516;28;20634;-52
2021/12/20 22:01:50;;;;;;;2.63;1.60;;;;;;;20.61;43.34;97574.56;10488296;28;20041;-54
2021/12/20 22:07:10;;;;;;;3.33;1.38;;;;;;;20.60;43.18;97576.50;10492679;28;20090;-53
2021/12/20 22:12:30;;;;;;;3.88;1.65;;;;;;;20.55;43.46;97569.25;10503689;28;20037;-51
2021/12/20 22:17:49;;;;;;;2.55;1.70;;;;;;;20.52;43.59;97579.91;10533432;28;20175;-50
2021/12/20 22:23:09;;;;;;;2.53;1.80;;;;;;;20.51;43.77;97578.31;10493129;28;20048;-53
2021/12/20 22:28:29;;;;;;;3.85;2.03;;;;;;;20.49;43.82;97575.94;10490782;28;20584;-53
2021/12/20 22:33:49;;;;;;;17.73;6.78;;;;;;;20.48;43.71;97566.22;10499528;28;20056;-52
2021/12/20 22:39:09;;;;;;;9.73;4.00;;;;;;;20.48;43.61;97570.81;10500787;28;20048;-54
2021/12/20 22:44:28;;;;;;;6.30;3.58;;;;;;;20.47;43.75;97563.81;10524448;28;20495;-52
2021/12/20 22:49:48;;;;;;;7.20;3.00;;;;;;;20.42;43.94;97574.78;10507351;28;20549;-54
2021/12/20 22:55:08;;;;;;;7.22;3.15;;;;;;;20.41;44.12;97573.19;10511585;28;20036;-53
2021/12/20 23:00:27;;;;;;;7.50;3.28;;;;;;;20.39;44.30;97576.19;10522095;28;20073;-54
2021/12/20 23:05:47;;;;;;;5.45;2.90;;;;;;;20.38;44.57;97573.78;10531348;28;20098;-54
2021/12/20 23:11:07;;;;;;;5.90;2.85;;;;;;;20.34;44.74;97569.00;10506847;28;20048;-54
2021/12/20 23:16:27;;;;;;;4.22;2.65;;;;;;;20.33;44.87;97572.81;10510331;28;20052;-54
2021/12/20 23:21:50;;;;;;;6.05;3.40;;;;;;;20.31;45.07;97572.34;10528632;28;20040;-54
2021/12/20 23:27:09;;;;;;;5.45;2.65;;;;;;;20.29;45.22;97569.16;10531283;28;20055;-53
2021/12/20 23:32:28;;;;;;;4.43;2.58;;;;;;;20.28;45.45;97566.75;10511457;28;20044;-53
2021/12/20 23:37:48;;;;;;;4.18;2.47;;;;;;;20.26;45.79;97560.84;10500450;28;20072;-53
2021/12/20 23:43:21;;;;;;;4.82;2.38;;;;;;;20.24;45.60;97561.16;10506438;28;20047;-54
2021/12/20 23:48:41;;;;;;;3.83;2.45;;;;;;;20.22;45.91;97566.06;10513244;28;20047;-54
2021/12/20 23:54:04;;;;;;;4.25;2.47;;;;;;;20.22;46.16;97562.56;10531089;28;20059;-55
2021/12/20 23:59:23;;;;;;;5.82;2.45;;;;;;;20.20;46.23;97562.88;10506908;28;20044;-53
